createdAt,value
2019-06-27T00:00:51.896Z,101839.38
2019-06-27T00:05:55.478Z,101837.24
2019-06-27T00:10:58.939Z,101844.67
2019-06-27T00:16:02.362Z,101836.53
2019-06-27T00:21:05.804Z,101851.52
2019-06-27T00:26:09.222Z,101851.52
2019-06-27T00:31:12.663Z,101849.72
2019-06-27T00:36:16.099Z,101867.36
2019-06-27T00:41:19.736Z,101867.36
2019-06-27T00:46:23.160Z,101858.28
2019-06-27T00:51:26.581Z,101854.77
2019-06-27T00:56:29.995Z,101850.17
2019-06-27T01:01:33.403Z,101849.34
2019-06-27T01:06:37.475Z,101861.50
2019-06-27T01:11:40.824Z,101857.01
2019-06-27T01:16:44.315Z,101857.83
2019-06-27T01:21:47.733Z,101859.83
2019-06-27T01:26:51.177Z,101866.38
2019-06-27T01:31:54.590Z,101865.86
2019-06-27T01:36:58.016Z,101866.41
2019-06-27T01:42:01.514Z,101866.91
2019-06-27T01:47:06.181Z,101869.23
2019-06-27T01:52:09.689Z,101860.77
2019-06-27T01:57:13.113Z,101860.03
2019-06-27T02:02:16.671Z,101857.33
2019-06-27T02:07:20.096Z,101867.62
2019-06-27T02:12:23.536Z,101866.98
2019-06-27T02:17:26.964Z,101870.20
2019-06-27T02:22:30.395Z,101867.16
2019-06-27T02:27:33.820Z,101866.38
2019-06-27T02:32:37.239Z,101874.02
2019-06-27T02:37:40.659Z,101876.47
2019-06-27T02:42:44.085Z,101879.50
2019-06-27T02:47:47.505Z,101875.45
2019-06-27T02:52:50.907Z,101880.47
2019-06-27T02:57:54.400Z,101891.41
2019-06-27T03:02:57.947Z,101890.77
2019-06-27T03:08:01.641Z,101889.64
2019-06-27T03:13:05.166Z,101896.47
2019-06-27T03:18:08.600Z,101899.86
2019-06-27T03:23:12.016Z,101903.42
2019-06-27T03:28:15.418Z,101891.09
2019-06-27T03:33:18.863Z,101903.78
2019-06-27T03:38:22.289Z,101896.76
2019-06-27T03:43:25.728Z,101899.41
2019-06-27T03:48:29.153Z,101900.89
2019-06-27T03:53:32.601Z,101908.83
2019-06-27T03:58:36.023Z,101905.20
2019-06-27T04:03:42.802Z,101907.47
2019-06-27T04:08:44.579Z,101908.14
2019-06-27T04:13:48.838Z,101906.83
2019-06-27T04:18:52.291Z,101910.95
2019-06-27T04:23:55.697Z,101907.05
2019-06-27T04:28:59.370Z,101923.27
2019-06-27T04:34:02.787Z,101920.64
2019-06-27T04:39:06.297Z,101921.53
2019-06-27T04:44:09.722Z,101926.62
2019-06-27T04:49:14.058Z,101924.17
2019-06-27T04:54:17.645Z,101931.90
2019-06-27T04:59:21.090Z,101934.41
2019-06-27T05:04:24.511Z,101937.95
2019-06-27T05:09:27.956Z,101938.45
2019-06-27T05:14:32.653Z,101939.41
2019-06-27T05:19:37.625Z,101950.52
2019-06-27T05:24:41.038Z,101951.16
2019-06-27T05:29:44.464Z,101966.04
2019-06-27T05:34:47.907Z,101953.83
2019-06-27T05:39:51.342Z,101961.14
2019-06-27T05:44:54.743Z,101960.91
2019-06-27T05:49:58.156Z,101956.39
2019-06-27T05:55:01.751Z,101959.57
2019-06-27T06:00:07.377Z,101968.10
2019-06-27T06:05:10.861Z,101970.86
2019-06-27T06:10:14.517Z,101975.89
2019-06-27T06:15:19.629Z,101968.50
2019-06-27T06:20:23.238Z,101967.30
2019-06-27T06:25:26.680Z,101972.89
2019-06-27T06:30:43.719Z,101971.59
2019-06-27T06:35:35.423Z,101979.28
2019-06-27T06:40:38.843Z,101980.95
2019-06-27T06:45:42.271Z,101989.45
2019-06-27T06:50:45.703Z,101982.99
2019-06-27T06:55:49.116Z,101988.70
2019-06-27T07:01:01.639Z,101983.30
2019-06-27T07:05:57.741Z,101991.37
2019-06-27T07:11:01.248Z,101995.98
2019-06-27T07:16:05.004Z,102000.23
2019-06-27T07:21:09.632Z,101995.17
2019-06-27T07:26:13.146Z,101998.23
2019-06-27T07:31:18.302Z,101996.84
2019-06-27T07:36:21.867Z,102003.61
2019-06-27T07:41:25.289Z,101996.99
2019-06-27T07:46:29.031Z,101999.80
2019-06-27T07:51:32.465Z,101998.88
2019-06-27T07:56:35.939Z,101998.68
2019-06-27T08:01:39.369Z,102007.08
2019-06-27T08:06:42.825Z,101996.49
2019-06-27T08:11:46.219Z,101995.87
2019-06-27T08:16:49.655Z,101988.41
2019-06-27T08:21:53.107Z,101990.09
2019-06-27T08:26:56.598Z,101988.36
2019-06-27T08:32:00.057Z,101987.05
2019-06-27T08:37:03.755Z,101993.30
2019-06-27T08:42:07.171Z,101992.42
2019-06-27T08:47:10.680Z,101995.00
2019-06-27T08:52:14.126Z,101987.86
2019-06-27T08:57:17.562Z,101982.04
2019-06-27T09:02:20.995Z,101980.98
2019-06-27T09:07:24.533Z,101985.67
2019-06-27T09:12:28.014Z,101981.17
2019-06-27T09:17:31.455Z,101967.53
2019-06-27T09:22:34.891Z,101968.31
2019-06-27T09:27:39.223Z,101970.36
2019-06-27T09:32:42.678Z,101967.53
2019-06-27T09:37:46.110Z,101955.82
2019-06-27T09:42:49.606Z,101954.48
2019-06-27T09:47:53.123Z,101966.75
2019-06-27T09:52:56.543Z,101953.94
2019-06-27T09:57:59.967Z,101953.97
2019-06-27T10:03:03.412Z,101956.95
2019-06-27T10:08:06.890Z,101940.42
2019-06-27T10:13:10.346Z,101953.27
2019-06-27T10:18:13.755Z,101944.23
2019-06-27T10:23:17.170Z,101943.02
2019-06-27T10:28:20.608Z,101943.48
2019-06-27T10:33:24.029Z,101935.02
2019-06-27T10:38:27.468Z,101937.39
2019-06-27T10:43:30.885Z,101924.85
2019-06-27T10:48:34.317Z,101937.02
2019-06-27T10:53:37.754Z,101930.77
2019-06-27T10:58:41.165Z,101923.04
2019-06-27T11:03:44.615Z,101920.25
2019-06-27T11:08:48.023Z,101921.91
2019-06-27T11:13:58.651Z,101917.55
2019-06-27T11:18:56.616Z,101917.73
2019-06-27T11:24:00.022Z,101912.98
2019-06-27T11:29:03.433Z,101912.67
2019-06-27T11:34:06.870Z,101909.52
2019-06-27T11:39:10.290Z,101909.93
2019-06-27T11:44:13.715Z,101913.09
2019-06-27T11:49:17.127Z,101909.03
2019-06-27T11:54:20.546Z,101901.53
2019-06-27T11:59:23.974Z,101898.54
2019-06-27T12:04:27.387Z,101881.37
2019-06-27T12:09:30.845Z,101892.93
2019-06-27T12:14:34.297Z,101882.62
2019-06-27T12:19:37.725Z,101881.59
2019-06-27T12:24:41.605Z,101879.99
2019-06-27T12:29:45.041Z,101887.27
2019-06-27T12:34:49.414Z,101874.88
2019-06-27T12:39:52.915Z,101872.41
2019-06-27T12:44:56.344Z,101864.52
2019-06-27T12:50:02.539Z,101851.88
2019-06-27T12:55:05.876Z,101865.34
2019-06-27T13:00:10.167Z,101852.83
2019-06-27T13:05:13.778Z,101848.59
2019-06-27T13:10:18.391Z,101839.23
2019-06-27T13:15:21.959Z,101841.06
2019-06-27T13:20:25.509Z,101828.48
2019-06-27T13:25:28.920Z,101823.79
2019-06-27T13:30:32.501Z,101822.49
2019-06-27T13:35:35.919Z,101824.80
2019-06-27T13:40:39.360Z,101819.27
2019-06-27T13:45:42.774Z,101817.94
2019-06-27T13:50:46.206Z,101809.06
2019-06-27T13:55:49.630Z,101803.80
2019-06-27T14:00:53.076Z,101797.27
2019-06-27T14:05:56.498Z,101781.97
2019-06-27T14:10:59.933Z,101779.46
2019-06-27T14:16:05.805Z,101779.22
2019-06-27T14:21:08.509Z,101770.19
2019-06-27T14:26:11.935Z,101777.81
2019-06-27T14:31:15.440Z,101774.86
2019-06-27T14:36:18.853Z,101773.64
2019-06-27T14:41:22.264Z,101772.05
2019-06-27T14:46:25.791Z,101772.73
2019-06-27T14:51:29.219Z,101773.95
2019-06-27T14:56:32.728Z,101757.02
2019-06-27T15:01:36.135Z,101772.04
2019-06-27T15:06:39.585Z,101756.24
2019-06-27T15:11:43.016Z,101759.11
2019-06-27T15:16:46.451Z,101753.78
2019-06-27T15:21:49.902Z,101757.41
2019-06-27T15:26:53.312Z,101753.73
2019-06-27T15:31:56.750Z,101755.43
2019-06-27T15:37:00.178Z,101750.13
2019-06-27T15:42:03.627Z,101752.17
2019-06-27T15:47:07.123Z,101747.16
2019-06-27T15:52:10.564Z,101743.75
2019-06-27T15:57:14.078Z,101752.19
2019-06-27T16:02:17.506Z,101739.75
2019-06-27T16:07:20.927Z,101738.08
2019-06-27T16:12:24.603Z,101732.52
2019-06-27T16:17:28.036Z,101740.38
2019-06-27T16:22:31.551Z,101734.34
2019-06-27T16:27:34.970Z,101741.02
2019-06-27T16:32:38.400Z,101733.84
2019-06-27T16:37:41.910Z,101737.95
2019-06-27T16:42:45.340Z,101731.25
2019-06-27T16:47:48.762Z,101741.72
2019-06-27T16:52:52.217Z,101738.64
2019-06-27T16:57:55.638Z,101744.44
2019-06-27T17:02:59.074Z,101736.39
2019-06-27T17:08:02.556Z,101735.07
2019-06-27T17:13:05.965Z,101744.06
2019-06-27T17:18:09.382Z,101742.94
2019-06-27T17:23:12.815Z,101742.84
2019-06-27T17:28:16.254Z,101750.33
2019-06-27T17:33:19.657Z,101741.59
2019-06-27T17:38:23.092Z,101742.08
2019-06-27T17:43:26.531Z,101745.65
2019-06-27T17:48:29.969Z,101743.00
2019-06-27T17:53:33.409Z,101742.77
2019-06-27T17:58:36.864Z,101748.42
2019-06-27T18:03:40.311Z,101761.95
2019-06-27T18:08:43.730Z,101762.92
2019-06-27T18:13:47.264Z,101767.34
2019-06-27T18:18:51.153Z,101768.27
2019-06-27T18:23:54.736Z,101767.36
2019-06-27T18:28:58.171Z,101768.48
2019-06-27T18:34:01.591Z,101768.34
2019-06-27T18:39:06.157Z,101766.25
2019-06-27T18:44:09.583Z,101761.14
2019-06-27T18:49:13.025Z,101768.78
2019-06-27T18:54:16.448Z,101773.44
2019-06-27T18:59:19.905Z,101771.61
2019-06-27T19:04:23.343Z,101771.88
2019-06-27T19:09:26.783Z,101778.48
2019-06-27T19:14:30.214Z,101768.98
2019-06-27T19:19:35.279Z,101781.00
2019-06-27T19:24:49.608Z,101775.18
2019-06-27T19:29:53.047Z,101779.83
2019-06-27T19:34:56.472Z,101789.95
2019-06-27T19:39:59.927Z,101791.03
2019-06-27T19:45:03.991Z,101800.61
2019-06-27T19:50:07.510Z,101806.34
2019-06-27T19:55:11.546Z,101804.58
2019-06-27T20:00:17.294Z,101802.56
2019-06-27T20:05:20.800Z,101801.90
2019-06-27T20:10:24.313Z,101816.51
2019-06-27T20:15:27.771Z,101812.30
2019-06-27T20:20:31.191Z,101821.55
2019-06-27T20:25:34.594Z,101815.45
2019-06-27T20:30:38.020Z,101825.30
2019-06-27T20:35:41.995Z,101818.20
2019-06-27T20:40:45.455Z,101827.42
2019-06-27T20:45:49.081Z,101818.75
2019-06-27T20:50:53.006Z,101821.73
2019-06-27T20:55:56.448Z,101830.95
2019-06-27T21:00:59.944Z,101837.37
2019-06-27T21:06:03.427Z,101840.81
2019-06-27T21:11:06.896Z,101850.02
2019-06-27T21:16:10.336Z,101851.13
2019-06-27T21:21:13.855Z,101847.27
2019-06-27T21:26:18.425Z,101840.86
2019-06-27T21:31:21.869Z,101847.44
2019-06-27T21:36:25.275Z,101843.36
2019-06-27T21:41:28.722Z,101849.64
2019-06-27T21:46:32.143Z,101848.60
2019-06-27T21:51:35.570Z,101857.16
2019-06-27T21:56:38.983Z,101865.49
2019-06-27T22:01:42.477Z,101859.66
2019-06-27T22:06:45.928Z,101856.33
2019-06-27T22:11:49.375Z,101855.26
2019-06-27T22:16:52.800Z,101862.43
2019-06-27T22:21:56.210Z,101859.28
2019-06-27T22:26:59.731Z,101857.90
2019-06-27T22:32:03.265Z,101859.03
2019-06-27T22:37:07.223Z,101853.03
2019-06-27T22:42:28.513Z,101846.89
2019-06-27T22:47:50.762Z,101847.36
2019-06-27T22:53:10.726Z,101843.86
2019-06-27T22:58:14.193Z,101835.11
2019-06-27T23:03:17.635Z,101826.64
2019-06-27T23:08:21.158Z,101824.07
2019-06-27T23:13:24.596Z,101814.52
2019-06-27T23:18:28.131Z,101827.02
2019-06-27T23:23:31.604Z,101824.88
2019-06-27T23:28:35.009Z,101818.86
2019-06-27T23:33:38.422Z,101823.91
2019-06-27T23:38:41.841Z,101812.35
2019-06-27T23:43:45.282Z,101823.23
2019-06-27T23:48:48.718Z,101824.22
2019-06-27T23:53:52.161Z,101816.34
2019-06-27T23:58:55.618Z,101812.77
